createdAt,value
2018-09-24T00:01:31.943Z,11.93
2018-09-24T00:06:34.074Z,11.89
2018-09-24T00:11:36.346Z,11.86
2018-09-24T00:16:38.514Z,11.83
2018-09-24T00:21:40.623Z,11.81
2018-09-24T00:26:42.786Z,11.78
2018-09-24T00:31:44.902Z,11.83
2018-09-24T00:36:47.033Z,11.92
2018-09-24T00:41:49.182Z,11.94
2018-09-24T00:46:51.310Z,11.94
2018-09-24T00:51:53.447Z,11.93
2018-09-24T00:56:55.582Z,11.89
2018-09-24T01:01:57.688Z,11.91
2018-09-24T01:06:59.796Z,11.91
2018-09-24T01:12:01.928Z,11.87
2018-09-24T01:17:04.113Z,11.88
2018-09-24T01:22:06.231Z,11.87
2018-09-24T01:27:08.371Z,11.86
2018-09-24T01:32:10.495Z,11.79
2018-09-24T01:37:12.620Z,11.78
2018-09-24T01:42:14.799Z,11.74
2018-09-24T01:47:16.882Z,11.75
2018-09-24T01:52:19.025Z,11.67
2018-09-24T01:57:21.172Z,11.65
2018-09-24T02:02:23.302Z,11.62
2018-09-24T02:07:25.409Z,11.67
2018-09-24T02:12:27.523Z,11.71
2018-09-24T02:17:29.680Z,11.67
2018-09-24T02:22:31.841Z,11.61
2018-09-24T02:27:33.935Z,11.66
2018-09-24T02:32:36.069Z,11.67
2018-09-24T02:37:38.256Z,11.63
2018-09-24T02:42:40.419Z,11.62
2018-09-24T02:47:42.542Z,11.58
2018-09-24T02:52:44.711Z,11.61
2018-09-24T02:57:46.886Z,11.64
2018-09-24T03:02:49.223Z,11.66
2018-09-24T03:07:51.307Z,11.63
2018-09-24T03:12:53.421Z,11.63
2018-09-24T03:17:55.554Z,11.65
2018-09-24T03:22:57.674Z,11.61
2018-09-24T03:28:00.545Z,11.61
2018-09-24T03:33:03.064Z,11.63
2018-09-24T03:38:05.261Z,11.58
2018-09-24T03:43:07.405Z,11.66
2018-09-24T03:48:09.501Z,11.58
2018-09-24T03:53:11.607Z,11.62
2018-09-24T03:58:13.814Z,11.62
2018-09-24T04:03:15.969Z,11.63
2018-09-24T04:08:23.749Z,11.70
2018-09-24T04:13:31.605Z,11.67
2018-09-24T04:18:39.533Z,11.69
2018-09-24T04:23:47.413Z,11.65
2018-09-24T04:28:55.094Z,11.70
2018-09-24T04:34:03.033Z,11.60
2018-09-24T04:39:13.649Z,11.48
2018-09-24T04:44:22.453Z,11.50
2018-09-24T04:49:30.161Z,11.65
2018-09-24T04:54:38.042Z,11.63
2018-09-24T04:59:45.808Z,11.52
2018-09-24T05:04:53.747Z,11.58
2018-09-24T05:10:01.511Z,11.58
2018-09-24T05:15:09.411Z,11.51
2018-09-24T05:20:17.273Z,11.43
2018-09-24T05:25:25.011Z,11.47
2018-09-24T05:30:32.724Z,11.48
2018-09-24T05:35:40.469Z,11.54
2018-09-24T05:40:48.386Z,11.56
2018-09-24T05:45:56.333Z,11.63
2018-09-24T05:51:04.247Z,11.52
2018-09-24T05:56:11.979Z,11.51
2018-09-24T06:01:19.906Z,11.59
2018-09-24T06:06:27.851Z,11.64
2018-09-24T06:11:35.756Z,11.71
2018-09-24T06:16:43.472Z,11.72
2018-09-24T06:21:51.340Z,11.85
2018-09-24T06:26:59.253Z,11.96
2018-09-24T06:32:07.008Z,11.96
2018-09-24T06:37:14.798Z,11.92
2018-09-24T06:42:22.713Z,11.85
2018-09-24T06:47:30.693Z,11.84
2018-09-24T06:52:38.635Z,11.88
2018-09-24T06:57:46.546Z,11.96
2018-09-24T07:02:54.214Z,11.91
2018-09-24T07:08:02.135Z,11.39
2018-09-24T07:13:09.910Z,11.84
2018-09-24T07:18:17.790Z,11.94
2018-09-24T07:23:25.663Z,11.99
2018-09-24T07:28:33.558Z,12.01
2018-09-24T07:33:41.284Z,12.07
2018-09-24T07:38:49.206Z,12.27
2018-09-24T07:43:56.922Z,12.30
2018-09-24T07:49:04.924Z,12.12
2018-09-24T07:54:12.850Z,12.29
2018-09-24T07:59:20.695Z,12.37
2018-09-24T08:04:28.617Z,12.58
2018-09-24T08:09:36.539Z,12.69
2018-09-24T08:14:44.429Z,12.69
2018-09-24T08:19:52.497Z,12.71
2018-09-24T08:25:00.273Z,12.84
2018-09-24T08:30:08.189Z,12.96
2018-09-24T08:35:16.132Z,13.07
2018-09-24T08:40:24.100Z,13.25
2018-09-24T08:45:31.982Z,13.23
2018-09-24T08:50:39.948Z,13.15
2018-09-24T08:55:47.870Z,13.21
2018-09-24T09:00:55.755Z,13.32
2018-09-24T09:06:03.633Z,13.44
2018-09-24T09:11:11.580Z,13.39
2018-09-24T09:16:19.315Z,13.43
2018-09-24T09:21:26.977Z,13.62
2018-09-24T09:26:34.898Z,13.71
2018-09-24T09:31:42.614Z,13.78
2018-09-24T09:36:50.540Z,13.68
2018-09-24T09:41:58.255Z,13.84
2018-09-24T09:47:06.138Z,14.06
2018-09-24T09:52:14.101Z,14.28
2018-09-24T09:57:22.031Z,13.89
2018-09-24T10:02:29.861Z,13.83
2018-09-24T10:07:37.735Z,13.93
2018-09-24T10:12:45.679Z,13.98
2018-09-24T10:17:53.615Z,14.14
2018-09-24T10:23:01.396Z,14.39
2018-09-24T10:28:09.286Z,14.64
2018-09-24T10:33:17.091Z,14.78
2018-09-24T10:38:24.990Z,14.94
2018-09-24T10:43:32.938Z,15.08
2018-09-24T10:48:40.851Z,15.05
2018-09-24T10:53:48.899Z,15.15
2018-09-24T10:58:56.723Z,15.10
2018-09-24T11:04:04.797Z,14.73
2018-09-24T11:09:13.493Z,13.84
2018-09-24T11:14:21.472Z,13.14
2018-09-24T11:19:29.457Z,12.99
2018-09-24T11:24:37.411Z,13.42
2018-09-24T11:29:45.302Z,14.16
2018-09-24T11:34:53.098Z,13.94
2018-09-24T11:40:00.986Z,13.67
2018-09-24T11:45:08.889Z,14.31
2018-09-24T11:50:16.891Z,15.27
2018-09-24T11:55:24.715Z,15.70
2018-09-24T12:00:32.655Z,15.77
2018-09-24T12:05:40.562Z,16.74
2018-09-24T12:10:48.555Z,17.43
2018-09-24T12:15:56.266Z,17.89
2018-09-24T12:21:04.182Z,18.20
2018-09-24T12:26:12.180Z,18.24
2018-09-24T12:31:20.110Z,18.41
2018-09-24T12:36:28.225Z,19.02
2018-09-24T12:41:36.261Z,19.58
2018-09-24T12:46:44.087Z,19.60
2018-09-24T12:51:52.032Z,19.01
2018-09-24T12:57:00.110Z,16.41
2018-09-24T13:02:08.059Z,15.50
2018-09-24T13:07:15.819Z,16.55
2018-09-24T13:12:23.756Z,18.01
2018-09-24T13:17:31.753Z,19.21
2018-09-24T13:22:39.774Z,19.75
2018-09-24T13:27:47.663Z,20.15
2018-09-24T13:32:55.612Z,20.18
2018-09-24T13:38:03.577Z,20.59
2018-09-24T13:43:11.479Z,20.82
2018-09-24T13:48:19.419Z,20.87
2018-09-24T13:53:27.187Z,20.64
2018-09-24T13:58:35.098Z,21.09
2018-09-24T14:03:42.991Z,21.75
2018-09-24T14:08:50.811Z,21.30
2018-09-24T14:13:58.749Z,21.24
2018-09-24T14:19:06.507Z,21.45
2018-09-24T14:24:14.479Z,21.42
2018-09-24T14:29:22.431Z,21.77
2018-09-24T14:34:30.322Z,21.56
2018-09-24T14:39:38.231Z,21.71
2018-09-24T14:44:46.179Z,22.32
2018-09-24T14:49:54.076Z,21.80
2018-09-24T14:55:02.046Z,21.84
2018-09-24T15:00:09.952Z,21.59
2018-09-24T15:05:17.953Z,20.45
2018-09-24T15:10:25.859Z,18.80
2018-09-24T15:15:33.776Z,17.90
2018-09-24T15:20:41.642Z,17.23
2018-09-24T15:25:49.623Z,15.76
2018-09-24T15:30:57.487Z,15.31
2018-09-24T15:36:05.416Z,15.19
2018-09-24T15:41:13.317Z,14.98
2018-09-24T15:46:21.237Z,15.06
2018-09-24T15:51:29.017Z,14.79
2018-09-24T15:56:36.949Z,14.54
2018-09-24T16:01:44.884Z,14.37
2018-09-24T16:06:52.788Z,14.27
2018-09-24T16:12:00.754Z,14.21
2018-09-24T16:17:08.727Z,14.11
2018-09-24T16:22:16.664Z,14.09
2018-09-24T16:27:24.552Z,14.11
2018-09-24T16:32:32.491Z,13.84
2018-09-24T16:37:40.431Z,13.80
2018-09-24T16:42:48.473Z,13.67
2018-09-24T16:47:56.509Z,13.53
2018-09-24T16:53:04.432Z,13.35
2018-09-24T16:58:12.428Z,13.19
2018-09-24T17:03:20.266Z,13.41
2018-09-24T17:08:28.281Z,13.24
2018-09-24T17:13:36.178Z,13.06
2018-09-24T17:18:44.185Z,13.16
2018-09-24T17:23:52.120Z,12.89
2018-09-24T17:29:00.031Z,13.01
2018-09-24T17:34:08.051Z,12.99
2018-09-24T17:39:22.797Z,12.78
2018-09-24T17:44:30.791Z,12.70
2018-09-24T17:49:38.797Z,12.67
2018-09-24T17:54:46.812Z,12.59
2018-09-24T17:59:54.711Z,12.49
2018-09-24T18:05:02.632Z,12.46
2018-09-24T18:10:10.658Z,12.34
2018-09-24T18:15:18.690Z,12.36
2018-09-24T18:20:26.770Z,12.42
2018-09-24T18:25:34.671Z,12.32
2018-09-24T18:30:42.841Z,12.30
2018-09-24T18:35:50.772Z,12.37
2018-09-24T18:40:59.185Z,12.20
2018-09-24T18:46:07.434Z,12.28
2018-09-24T18:51:15.571Z,12.22
2018-09-24T18:56:24.576Z,12.25
2018-09-24T19:01:32.844Z,12.22
2018-09-24T19:06:42.056Z,12.26
2018-09-24T19:11:50.329Z,12.17
2018-09-24T19:16:58.377Z,12.15
2018-09-24T19:22:06.553Z,12.03
2018-09-24T19:27:14.963Z,12.09
2018-09-24T19:32:23.121Z,12.01
2018-09-24T19:37:31.401Z,12.05
2018-09-24T19:42:39.581Z,11.97
2018-09-24T19:47:47.975Z,11.97
2018-09-24T19:52:56.130Z,11.90
2018-09-24T19:58:04.430Z,11.79
2018-09-24T20:03:12.652Z,11.81
2018-09-24T20:08:20.823Z,11.75
2018-09-24T20:13:28.930Z,11.74
2018-09-24T20:18:36.797Z,11.77
2018-09-24T20:23:44.877Z,11.71
2018-09-24T20:28:52.699Z,11.64
2018-09-24T20:34:00.715Z,11.60
2018-09-24T20:39:08.515Z,11.59
2018-09-24T20:44:16.531Z,11.54
2018-09-24T20:49:24.221Z,11.41
2018-09-24T20:54:32.237Z,11.41
2018-09-24T20:59:40.365Z,11.42
2018-09-24T21:04:48.355Z,11.36
2018-09-24T21:09:56.263Z,11.24
2018-09-24T21:15:04.097Z,11.31
2018-09-24T21:20:12.341Z,11.20
2018-09-24T21:25:20.320Z,11.10
2018-09-24T21:30:28.063Z,11.18
2018-09-24T21:35:35.750Z,11.10
2018-09-24T21:40:43.727Z,11.10
2018-09-24T21:45:51.635Z,11.08
2018-09-24T21:50:59.700Z,11.06
2018-09-24T21:56:07.699Z,11.06
2018-09-24T22:01:15.675Z,10.85
2018-09-24T22:06:23.557Z,10.95
2018-09-24T22:11:31.412Z,10.92
2018-09-24T22:16:39.359Z,10.83
2018-09-24T22:21:47.275Z,10.86
2018-09-24T22:26:55.229Z,10.86
2018-09-24T22:32:03.095Z,10.80
2018-09-24T22:37:11.289Z,10.74
2018-09-24T22:42:19.162Z,10.66
2018-09-24T22:47:27.120Z,10.72
2018-09-24T22:52:34.902Z,10.66
2018-09-24T22:57:42.859Z,10.58
2018-09-24T23:02:50.523Z,10.45
2018-09-24T23:07:58.484Z,10.58
2018-09-24T23:13:06.479Z,10.36
2018-09-24T23:18:14.198Z,10.44
2018-09-24T23:23:22.200Z,10.36
2018-09-24T23:28:30.239Z,10.29
2018-09-24T23:33:38.124Z,10.29
2018-09-24T23:38:46.017Z,10.19
2018-09-24T23:43:54.012Z,10.09
2018-09-24T23:49:01.702Z,10.01
2018-09-24T23:54:09.690Z,10.02
2018-09-24T23:59:17.690Z,9.93
